createdAt,value
2022-10-23T00:01:56.388Z,18.40
2022-10-23T00:04:28.435Z,18.40
2022-10-23T00:06:56.342Z,18.30
2022-10-23T00:09:24.613Z,18.30
2022-10-23T00:11:51.914Z,18.40
2022-10-23T00:14:26.165Z,18.40
2022-10-23T00:16:53.672Z,18.40
2022-10-23T00:19:21.974Z,18.40
2022-10-23T00:21:50.136Z,18.30
2022-10-23T00:24:19.766Z,18.30
2022-10-23T00:26:47.003Z,18.30
2022-10-23T00:29:16.517Z,18.10
2022-10-23T00:31:44.581Z,18.20
2022-10-23T00:34:16.438Z,18.20
2022-10-23T00:36:43.893Z,18.20
2022-10-23T00:39:12.684Z,18.20
2022-10-23T00:41:40.759Z,18.20
2022-10-23T00:44:18.636Z,18.20
2022-10-23T00:46:48.582Z,18.20
2022-10-23T00:49:25.194Z,18.20
2022-10-23T00:52:01.807Z,18.20
2022-10-23T00:54:32.490Z,18.20
2022-10-23T00:57:01.801Z,18.20
2022-10-23T00:59:30.835Z,18.10
2022-10-23T01:01:59.980Z,18.10
2022-10-23T01:04:27.465Z,18.10
2022-10-23T01:06:58.418Z,17.90
2022-10-23T01:09:39.180Z,17.90
2022-10-23T01:12:13.877Z,17.90
2022-10-23T01:15:20.227Z,17.70
2022-10-23T01:17:56.215Z,17.70
2022-10-23T01:20:26.829Z,17.60
2022-10-23T01:23:10.046Z,17.60
2022-10-23T01:26:00.230Z,17.60
2022-10-23T01:28:35.718Z,17.70
2022-10-23T01:31:10.547Z,17.60
2022-10-23T01:33:42.996Z,17.60
2022-10-23T01:36:15.586Z,17.70
2022-10-23T01:38:48.109Z,17.60
2022-10-23T01:41:18.775Z,17.50
2022-10-23T01:43:53.011Z,17.60
2022-10-23T01:46:23.383Z,17.50
2022-10-23T01:48:53.099Z,17.50
2022-10-23T01:51:22.665Z,17.50
2022-10-23T01:53:50.521Z,17.50
2022-10-23T01:56:27.633Z,17.50
2022-10-23T01:58:55.565Z,17.60
2022-10-23T02:01:24.846Z,17.50
2022-10-23T02:03:54.060Z,17.30
2022-10-23T02:06:21.775Z,17.30
2022-10-23T02:08:49.743Z,17.30
2022-10-23T02:11:34.783Z,17.30
2022-10-23T02:14:17.910Z,17.30
2022-10-23T02:16:50.884Z,17.40
2022-10-23T02:19:18.229Z,17.30
2022-10-23T02:21:48.893Z,17.30
2022-10-23T02:24:16.890Z,17.30
2022-10-23T02:26:45.129Z,17.20
2022-10-23T02:29:18.139Z,17.30
2022-10-23T02:31:46.161Z,17.30
2022-10-23T02:34:14.141Z,17.30
2022-10-23T02:36:41.681Z,17.40
2022-10-23T02:39:09.128Z,17.40
2022-10-23T02:41:36.139Z,17.40
2022-10-23T02:44:22.170Z,17.40
2022-10-23T02:46:49.058Z,17.30
2022-10-23T02:49:48.361Z,17.30
2022-10-23T02:52:18.002Z,17.30
2022-10-23T02:54:46.828Z,17.20
2022-10-23T02:57:14.181Z,17.20
2022-10-23T02:59:44.249Z,17.10
2022-10-23T03:02:16.832Z,17.10
2022-10-23T03:04:44.213Z,17.00
2022-10-23T03:07:11.576Z,17.00
2022-10-23T03:09:38.659Z,16.90
2022-10-23T03:12:05.962Z,16.70
2022-10-23T03:14:33.025Z,16.70
2022-10-23T03:17:00.207Z,16.80
2022-10-23T03:19:27.966Z,16.80
2022-10-23T03:21:55.901Z,16.90
2022-10-23T03:24:23.987Z,17.00
2022-10-23T03:26:52.177Z,17.00
2022-10-23T03:29:20.059Z,17.00
2022-10-23T03:31:47.533Z,17.10
2022-10-23T03:34:18.004Z,17.00
2022-10-23T03:36:45.515Z,17.00
2022-10-23T03:39:13.124Z,17.10
2022-10-23T03:41:41.067Z,17.10
2022-10-23T03:44:09.182Z,17.10
2022-10-23T03:46:36.660Z,17.10
2022-10-23T03:49:04.178Z,17.00
2022-10-23T03:51:31.493Z,17.10
2022-10-23T03:53:58.729Z,17.10
2022-10-23T03:56:25.748Z,17.20
2022-10-23T03:58:52.879Z,17.20
2022-10-23T04:01:19.951Z,17.20
2022-10-23T04:03:47.620Z,17.10
2022-10-23T04:06:14.637Z,17.20
2022-10-23T04:08:43.303Z,17.10
2022-10-23T04:11:19.495Z,17.20
2022-10-23T04:13:47.537Z,17.10
2022-10-23T04:16:14.822Z,17.10
2022-10-23T04:18:41.966Z,17.10
2022-10-23T04:21:14.949Z,17.20
2022-10-23T04:23:42.763Z,17.20
2022-10-23T04:26:10.693Z,17.20
2022-10-23T04:28:38.302Z,17.20
2022-10-23T04:31:07.713Z,17.20
2022-10-23T04:33:38.894Z,17.20
2022-10-23T04:36:07.003Z,17.20
2022-10-23T04:38:34.716Z,17.10
2022-10-23T04:41:02.184Z,17.10
2022-10-23T04:43:29.358Z,17.10
2022-10-23T04:45:56.396Z,17.20
2022-10-23T04:53:46.571Z,16.90
2022-10-23T04:58:58.650Z,16.80
2022-10-23T05:01:27.767Z,16.80
2022-10-23T05:03:58.191Z,16.90
2022-10-23T05:06:30.208Z,16.70
2022-10-23T05:09:02.606Z,16.50
2022-10-23T05:11:37.820Z,16.40
2022-10-23T05:16:52.622Z,16.40
2022-10-23T05:19:24.272Z,16.50
2022-10-23T05:24:50.469Z,16.80
2022-10-23T05:27:20.410Z,16.90
2022-10-23T05:35:20.616Z,17.10
2022-10-23T05:37:50.940Z,17.10
2022-10-23T05:40:23.600Z,17.10
2022-10-23T05:45:40.243Z,17.10
2022-10-23T05:56:30.480Z,17.10
2022-10-23T05:59:03.853Z,17.10
2022-10-23T06:06:55.819Z,17.20
2022-10-23T06:09:24.281Z,17.20
2022-10-23T06:12:01.280Z,17.20
2022-10-23T06:17:10.633Z,17.30
2022-10-23T06:19:38.108Z,17.30
2022-10-23T06:24:48.262Z,17.30
2022-10-23T06:27:18.142Z,17.30
2022-10-23T06:29:49.303Z,17.30
2022-10-23T06:32:16.967Z,17.20
2022-10-23T06:34:50.891Z,17.20
2022-10-23T06:37:19.166Z,17.30
2022-10-23T06:39:47.639Z,17.40
2022-10-23T06:42:16.228Z,17.50
2022-10-23T06:44:44.120Z,17.60
2022-10-23T06:49:47.007Z,17.50
2022-10-23T06:52:41.751Z,17.50
2022-10-23T06:55:05.552Z,17.50
2022-10-23T06:57:35.164Z,17.60
2022-10-23T07:00:02.300Z,17.70
2022-10-23T07:02:31.240Z,17.60
2022-10-23T07:04:58.633Z,17.70
2022-10-23T07:07:26.744Z,17.70
2022-10-23T07:09:54.006Z,17.80
2022-10-23T07:12:23.903Z,17.90
2022-10-23T07:14:52.508Z,17.90
2022-10-23T07:17:25.549Z,18.00
2022-10-23T07:19:53.715Z,18.10
2022-10-23T07:22:21.732Z,18.20
2022-10-23T07:27:31.875Z,18.70
2022-10-23T07:29:59.173Z,18.90
2022-10-23T07:32:31.426Z,19.00
2022-10-23T07:35:04.634Z,19.30
2022-10-23T07:37:38.503Z,19.80
2022-10-23T07:40:06.307Z,20.10
2022-10-23T07:42:39.407Z,20.70
2022-10-23T07:45:27.857Z,21.20
2022-10-23T07:48:02.135Z,21.30
2022-10-23T07:53:21.025Z,21.50
2022-10-23T07:56:06.535Z,22.30
2022-10-23T07:58:42.014Z,23.10
2022-10-23T08:04:49.092Z,24.50
2022-10-23T08:07:16.985Z,24.60
2022-10-23T08:09:49.699Z,25.80
2022-10-23T08:12:17.088Z,26.90
2022-10-23T08:14:55.062Z,27.40
2022-10-23T08:17:26.368Z,27.70
2022-10-23T08:19:58.228Z,29.20
2022-10-23T08:25:37.926Z,31.60
2022-10-23T08:28:06.379Z,32.70
2022-10-23T08:30:49.501Z,32.80
2022-10-23T08:34:00.079Z,33.00
2022-10-23T08:36:30.400Z,33.30
2022-10-23T08:42:25.094Z,35.20
2022-10-23T08:44:58.627Z,36.20
2022-10-23T08:56:10.379Z,39.00
2022-10-23T08:58:54.638Z,39.10
2022-10-23T09:01:55.310Z,39.40
2022-10-23T09:04:27.350Z,39.50
2022-10-23T09:07:14.781Z,39.80
2022-10-23T09:12:51.451Z,40.40
2022-10-23T09:15:26.792Z,40.60
2022-10-23T09:18:09.310Z,40.90
2022-10-23T09:20:36.737Z,41.20
2022-10-23T09:30:09.261Z,42.60
2022-10-23T09:32:45.722Z,42.80
2022-10-23T09:35:21.024Z,43.00
2022-10-23T09:37:57.494Z,42.60
2022-10-23T09:40:30.697Z,42.30
2022-10-23T09:43:04.547Z,42.00
2022-10-23T09:45:33.617Z,41.70
2022-10-23T09:48:12.586Z,41.50
2022-10-23T09:50:50.808Z,41.50
2022-10-23T09:53:20.994Z,41.00
2022-10-23T09:55:52.401Z,39.80
2022-10-23T09:58:32.203Z,38.50
2022-10-23T10:00:59.985Z,37.70
2022-10-23T10:03:39.863Z,37.50
2022-10-23T10:09:06.207Z,37.50
2022-10-23T10:14:37.050Z,36.90
2022-10-23T10:17:13.930Z,36.40
2022-10-23T10:19:41.206Z,35.50
2022-10-23T10:22:18.583Z,35.20
2022-10-23T10:31:06.842Z,37.90
2022-10-23T10:33:35.613Z,39.10
2022-10-23T10:36:03.924Z,39.80
2022-10-23T10:38:50.243Z,40.40
2022-10-23T10:41:34.924Z,40.80
2022-10-23T10:44:09.578Z,40.70
2022-10-23T10:46:39.266Z,40.60
2022-10-23T10:49:25.376Z,40.80
2022-10-23T10:52:02.330Z,40.90
2022-10-23T10:54:49.973Z,41.10
2022-10-23T10:57:29.548Z,41.20
2022-10-23T11:00:00.079Z,41.20
2022-10-23T11:02:34.969Z,41.40
2022-10-23T11:08:10.088Z,41.60
2022-10-23T11:10:48.462Z,41.80
2022-10-23T11:13:38.429Z,42.60
2022-10-23T11:16:16.510Z,43.10
2022-10-23T11:18:57.987Z,43.50
2022-10-23T11:21:40.875Z,43.70
2022-10-23T11:26:40.769Z,44.00
2022-10-23T11:29:22.997Z,44.00
2022-10-23T11:32:15.291Z,43.80
2022-10-23T11:34:55.401Z,43.70
2022-10-23T11:37:22.934Z,43.20
2022-10-23T11:40:01.149Z,43.00
2022-10-23T11:42:34.411Z,42.90
2022-10-23T11:45:02.111Z,42.80
2022-10-23T11:56:19.541Z,41.10
2022-10-23T11:58:53.589Z,40.70
2022-10-23T12:01:27.430Z,40.90
2022-10-23T12:04:07.237Z,41.20
2022-10-23T12:06:42.034Z,41.40
2022-10-23T12:09:31.127Z,41.30
2022-10-23T12:12:04.863Z,41.50
2022-10-23T12:14:45.036Z,41.70
2022-10-23T12:17:44.384Z,41.90
2022-10-23T12:20:13.164Z,42.20
2022-10-23T12:22:46.002Z,42.50
2022-10-23T12:25:15.995Z,42.60
2022-10-23T12:28:18.223Z,42.50
2022-10-23T12:30:58.917Z,42.20
2022-10-23T12:33:45.922Z,42.50
2022-10-23T12:36:56.848Z,42.50
2022-10-23T12:39:27.985Z,42.50
2022-10-23T12:41:55.591Z,42.80
2022-10-23T12:44:30.727Z,43.00
2022-10-23T12:46:59.214Z,43.00
2022-10-23T12:52:17.067Z,42.50
2022-10-23T12:54:47.000Z,42.30
2022-10-23T12:57:30.035Z,42.00
2022-10-23T13:05:34.427Z,42.50
2022-10-23T13:08:10.832Z,42.20
2022-10-23T13:10:38.735Z,42.00
2022-10-23T13:13:08.180Z,41.80
2022-10-23T13:15:41.910Z,41.60
2022-10-23T13:24:04.983Z,42.60
2022-10-23T13:29:18.250Z,42.50
2022-10-23T13:31:46.159Z,42.20
2022-10-23T13:34:34.436Z,41.80
2022-10-23T13:50:52.673Z,41.60
2022-10-23T13:53:36.404Z,41.60
2022-10-23T14:12:50.285Z,40.20
2022-10-23T14:15:21.291Z,40.00
2022-10-23T14:20:44.209Z,39.50
2022-10-23T14:23:26.302Z,39.20
2022-10-23T14:26:10.445Z,38.90
2022-10-23T14:37:41.699Z,36.60
2022-10-23T14:40:21.474Z,35.90
2022-10-23T14:48:31.057Z,34.30
2022-10-23T14:51:03.362Z,33.80
2022-10-23T14:59:07.570Z,32.40
2022-10-23T15:04:24.503Z,31.70
2022-10-23T15:09:37.795Z,31.00
2022-10-23T15:23:18.793Z,30.00
2022-10-23T15:25:56.048Z,29.80
2022-10-23T15:28:24.970Z,29.50
2022-10-23T15:33:48.002Z,29.20
2022-10-23T15:36:26.825Z,29.00
2022-10-23T15:38:54.689Z,28.80
2022-10-23T15:41:24.211Z,28.70
2022-10-23T15:49:32.817Z,28.40
2022-10-23T15:52:07.796Z,28.20
2022-10-23T15:54:40.148Z,28.10
2022-10-23T15:57:09.706Z,28.00
2022-10-23T15:59:49.867Z,27.80
2022-10-23T16:02:28.083Z,27.70
2022-10-23T16:05:08.833Z,27.50
2022-10-23T16:07:42.870Z,27.30
2022-10-23T16:10:29.226Z,27.30
2022-10-23T16:12:56.523Z,27.20
2022-10-23T16:29:23.870Z,26.40
2022-10-23T16:31:56.916Z,26.30
2022-10-23T16:34:46.101Z,26.10
2022-10-23T16:37:16.369Z,26.10
2022-10-23T16:39:43.943Z,26.00
2022-10-23T16:42:11.901Z,25.90
2022-10-23T16:44:46.509Z,25.80
2022-10-23T16:47:14.106Z,25.80
2022-10-23T16:49:57.617Z,25.60
2022-10-23T16:52:27.378Z,25.60
2022-10-23T16:55:13.063Z,25.60
2022-10-23T17:00:25.146Z,25.40
2022-10-23T17:02:59.050Z,25.30
2022-10-23T17:08:12.321Z,25.20
2022-10-23T17:10:52.818Z,25.20
2022-10-23T17:13:21.521Z,25.10
2022-10-23T17:18:41.300Z,24.80
2022-10-23T17:26:30.442Z,24.30
2022-10-23T17:28:59.075Z,24.20
2022-10-23T17:34:15.379Z,24.10
2022-10-23T17:42:36.699Z,24.10
2022-10-23T17:45:03.934Z,24.00
2022-10-23T17:47:37.020Z,24.00
2022-10-23T17:50:06.141Z,24.00
2022-10-23T17:55:45.172Z,23.70
2022-10-23T17:58:22.798Z,23.60
2022-10-23T18:00:53.330Z,23.50
2022-10-23T18:03:25.450Z,23.40
2022-10-23T18:05:52.984Z,23.40
2022-10-23T18:08:23.076Z,23.40
2022-10-23T18:10:52.136Z,23.40
2022-10-23T18:16:04.690Z,23.00
2022-10-23T18:18:33.999Z,22.90
2022-10-23T18:21:02.308Z,22.90
2022-10-23T18:23:30.294Z,22.90
2022-10-23T18:25:59.482Z,22.80
2022-10-23T18:28:28.318Z,22.80
2022-10-23T18:30:57.242Z,22.70
2022-10-23T18:36:13.030Z,22.60
2022-10-23T18:38:40.878Z,22.60
2022-10-23T18:41:12.169Z,22.60
2022-10-23T18:43:45.427Z,22.60
2022-10-23T18:48:56.106Z,22.40
2022-10-23T18:54:14.706Z,22.20
2022-10-23T18:56:42.252Z,22.20
2022-10-23T18:59:15.018Z,22.10
2022-10-23T19:01:43.031Z,22.00
2022-10-23T19:04:12.929Z,22.00
2022-10-23T19:06:41.226Z,22.00
2022-10-23T19:09:09.740Z,22.00
2022-10-23T19:11:38.625Z,22.00
2022-10-23T19:14:07.048Z,21.90
2022-10-23T19:19:26.026Z,21.90
2022-10-23T19:21:57.547Z,21.80
2022-10-23T19:24:27.294Z,21.80
2022-10-23T19:26:54.965Z,21.70
2022-10-23T19:29:34.821Z,21.70
2022-10-23T19:34:49.428Z,21.50
2022-10-23T19:37:17.446Z,21.50
2022-10-23T19:39:45.334Z,21.40
2022-10-23T19:42:13.214Z,21.40
2022-10-23T19:44:43.236Z,21.40
2022-10-23T19:47:16.298Z,21.30
2022-10-23T19:49:46.203Z,21.30
2022-10-23T19:52:24.404Z,21.20
2022-10-23T19:54:58.885Z,21.20
2022-10-23T19:57:30.430Z,21.10
2022-10-23T20:00:04.970Z,21.10
2022-10-23T20:05:05.390Z,21.00
2022-10-23T20:07:33.062Z,21.10
2022-10-23T20:10:00.988Z,21.00
2022-10-23T20:12:28.225Z,21.10
2022-10-23T20:15:00.982Z,21.10
2022-10-23T20:17:29.591Z,21.00
2022-10-23T20:19:57.188Z,20.90
2022-10-23T20:22:24.595Z,20.90
2022-10-23T20:24:51.998Z,20.90
2022-10-23T20:27:19.673Z,20.80
2022-10-23T20:29:48.237Z,20.70
2022-10-23T20:32:16.542Z,20.70
2022-10-23T20:34:43.635Z,20.50
2022-10-23T20:37:10.892Z,20.50
2022-10-23T20:39:40.581Z,20.30
2022-10-23T20:42:08.229Z,20.30
2022-10-23T20:44:36.161Z,20.30
2022-10-23T20:47:04.644Z,20.30
2022-10-23T20:49:33.639Z,20.30
2022-10-23T20:52:01.992Z,20.30
2022-10-23T20:54:29.378Z,20.30
2022-10-23T20:56:57.450Z,20.30
2022-10-23T20:59:25.298Z,20.30
2022-10-23T21:01:53.846Z,20.20
2022-10-23T21:04:22.596Z,20.10
2022-10-23T21:07:11.758Z,20.10
2022-10-23T21:09:39.657Z,20.00
2022-10-23T21:12:07.516Z,20.00
2022-10-23T21:14:35.503Z,20.00
2022-10-23T21:17:04.123Z,20.00
2022-10-23T21:19:31.689Z,20.00
2022-10-23T21:22:02.318Z,19.90
2022-10-23T21:24:30.912Z,19.90
2022-10-23T21:29:42.802Z,19.80
2022-10-23T21:32:10.693Z,19.80
2022-10-23T21:34:42.802Z,19.70
2022-10-23T21:37:14.751Z,19.60
2022-10-23T21:39:43.094Z,19.60
2022-10-23T21:42:11.307Z,19.50
2022-10-23T21:44:39.136Z,19.50
2022-10-23T21:47:07.440Z,19.50
2022-10-23T21:49:35.189Z,19.50
2022-10-23T21:52:03.355Z,19.30
2022-10-23T21:54:34.006Z,19.40
2022-10-23T21:57:04.430Z,19.40
2022-10-23T21:59:34.729Z,19.40
2022-10-23T22:02:03.126Z,19.40
2022-10-23T22:04:30.624Z,19.40
2022-10-23T22:06:57.916Z,19.30
2022-10-23T22:09:25.325Z,19.30
2022-10-23T22:11:53.384Z,19.30
2022-10-23T22:14:21.139Z,19.30
2022-10-23T22:16:49.105Z,19.20
2022-10-23T22:19:28.242Z,19.20
2022-10-23T22:21:56.142Z,19.10
2022-10-23T22:24:23.639Z,19.10
2022-10-23T22:26:52.872Z,19.10
2022-10-23T22:29:24.077Z,19.10
2022-10-23T22:31:51.848Z,19.10
2022-10-23T22:34:28.713Z,19.10
2022-10-23T22:37:08.374Z,19.00
2022-10-23T22:39:35.513Z,18.90
2022-10-23T22:42:14.797Z,19.00
2022-10-23T22:44:42.522Z,18.90
2022-10-23T22:47:20.123Z,18.90
2022-10-23T22:49:47.491Z,18.90
2022-10-23T22:52:14.628Z,18.90
2022-10-23T22:54:45.564Z,18.90
2022-10-23T22:57:12.799Z,18.90
2022-10-23T22:59:40.693Z,18.80
2022-10-23T23:02:08.619Z,18.80
2022-10-23T23:04:38.662Z,18.80
2022-10-23T23:07:10.481Z,18.80
2022-10-23T23:09:39.668Z,18.70
2022-10-23T23:12:07.523Z,18.70
2022-10-23T23:14:41.422Z,18.60
2022-10-23T23:17:09.403Z,18.60
2022-10-23T23:19:39.316Z,18.50
2022-10-23T23:22:23.529Z,18.50
2022-10-23T23:24:52.157Z,18.40
2022-10-23T23:27:19.842Z,18.40
2022-10-23T23:29:47.775Z,18.40
2022-10-23T23:32:15.351Z,18.40
2022-10-23T23:34:42.924Z,18.30
2022-10-23T23:37:20.220Z,18.30
2022-10-23T23:39:48.269Z,18.30
2022-10-23T23:42:17.275Z,18.30
2022-10-23T23:44:55.774Z,18.30
2022-10-23T23:47:30.208Z,18.30
2022-10-23T23:49:57.521Z,18.30
2022-10-23T23:52:25.275Z,18.20
2022-10-23T23:54:53.686Z,18.10
2022-10-23T23:57:21.131Z,18.10
2022-10-23T23:59:49.235Z,18.00
